首页
METAR-TAF:

METAR-TAF

机场 :

英迪拉·甘地国际机场

新德里, 印度

纬度: 28-34N, 经度: 077-07E, 海拔: 220米

当前天气观测

该预报发布于40分钟前的05:00 UTC
风速6节,风向西
温度 10°C
湿度 93%
气压 1021 hPa
能見度: 1000
少量云层高于4000英尺
散云层高于10000英尺
轻雾

METAR: VIDP 190500Z 27006KT 1000 R28/1400 R29/1300 BR FEW040 SCT100 10/09 Q1021 NOSIG

时间: 11:10 (05:40 UTC)

预报

该预报发布于40分钟前的05:00 UTC
预报有效从19日的 06点(UTC)到 20日的 12点(UTC)
风速5节,风向西
能見度: 1000
少量云层高于4000英尺
散云层高于10000英尺
轻雾, 烟
成为
从 19日的 09点(UTC)到 19日的 11点(UTC)
能見度: 1500
成为
从 19日的 18点(UTC)到 19日的 20点(UTC)
风速3节,风向西南
能見度: 0800
少量云层高于10000英尺
浅雾
成为
从 20日的 00点(UTC)到 20日的 02点(UTC)
风速节,风向
能見度: 0100
成为
从 20日的 04点(UTC)到 20日的 06点(UTC)
风速2节,风向多变
能見度: 0800
散云层高于10000英尺
浅雾
成为
从 20日的 08点(UTC)到 20日的 10点(UTC)
风速5节,风向西转西北
能見度: 1200
少量云层高于3000英尺

TAF: VIDP 190500Z 1906/2012 28005KT 1000 BR FU FEW040 SCT100 BECMG 1909/1911 1500 FU BECMG 1918/1920 23003KT 0800 MIFG FEW100 BECMG 2000/2002 00000KT 0100 FG VV/// BECMG 2004/2006 VRB02KT 0800 MIFG SCT100 BECMG 2008/2010 30005KT 1200 FU FEW030

超过4000个机场的气象观测和天气预报(METAR&TAF报告)。

可查询的气象台以黄色和红色小点在地图上表示。

将鼠标移到小点上方,可查看气象台名称。

然后点击查看天气观测和预报。

如需切换地图:点击带黑十字的绿色按钮放大地图;点击带横线的绿色按钮缩小地图;或者点击绿色箭头查看邻近地区的地图。


METAR-TAF: